Time;durP1;ratioP1;P1;durP2;ratioP2;P2;SDS_P1;SDS_P2;PMS_P1;PMS_P2;Temp;Humidity;BMP_temperature;BMP_pressure;BME280_temperature;BME280_humidity;BME280_pressure;Samples;Min_cycle;Max_cycle;Signal;HPM_P1;HPM_P2
2022/11/10 00:01:05;;;;;;;4.70;1.52;;;9.20;99.90;;;;;;5070164;28;20128;-80
2022/11/10 00:03:34;;;;;;;7.97;1.65;;;9.20;99.90;;;;;;5103127;28;20047;-80
2022/11/10 00:06:02;;;;;;;9.38;2.00;;;9.20;99.90;;;;;;5070511;28;20045;-80
2022/11/10 00:08:29;;;;;;;6.95;2.08;;;9.20;99.90;;;;;;5086089;28;20040;-80
2022/11/10 00:11:00;;;;;;;9.50;1.83;;;9.20;99.90;;;;;;5069814;28;20509;-80
2022/11/10 00:13:30;;;;;;;6.32;1.60;;;9.20;99.90;;;;;;5069897;28;20520;-80
2022/11/10 00:18:45;;;;;;;8.52;1.45;;;9.10;99.90;;;;;;5086701;28;20040;-80
2022/11/10 00:21:14;;;;;;;7.45;1.55;;;9.20;99.90;;;;;;5053643;28;20041;-80
2022/11/10 00:23:41;;;;;;;9.23;1.80;;;9.10;99.90;;;;;;5086073;28;20041;-80
2022/11/10 00:26:19;;;;;;;7.07;1.70;;;9.10;99.90;;;;;;5069434;28;20051;-80
2022/11/10 00:28:46;;;;;;;4.90;1.60;;;9.10;99.90;;;;;;5075470;28;20045;-80
2022/11/10 00:31:13;;;;;;;9.10;1.60;;;9.10;99.90;;;;;;5042026;28;20033;-81
2022/11/10 00:33:42;;;;;;;4.47;1.58;;;9.00;99.90;;;;;;5053238;28;20041;-80
2022/11/10 00:36:09;;;;;;;3.58;1.52;;;9.10;99.90;;;;;;5086315;28;20049;-80
2022/11/10 00:38:36;;;;;;;7.60;1.55;;;9.00;99.90;;;;;;5053315;28;20076;-80
2022/11/10 00:41:03;;;;;;;5.78;1.73;;;9.00;99.90;;;;;;5069535;28;20117;-80
2022/11/10 00:43:30;;;;;;;5.75;1.77;;;9.00;99.90;;;;;;5069625;28;20080;-81
2022/11/10 00:45:57;;;;;;;4.55;1.45;;;9.00;99.90;;;;;;5036994;28;20098;-81
2022/11/10 00:48:24;;;;;;;6.60;1.58;;;9.00;99.90;;;;;;5069321;28;20037;-81
2022/11/10 00:50:50;;;;;;;9.68;1.98;;;9.00;99.90;;;;;;5036937;28;20120;-80
2022/11/10 00:53:17;;;;;;;9.50;1.60;;;9.00;99.90;;;;;;5086055;28;20039;-80
2022/11/10 00:55:44;;;;;;;7.15;1.95;;;8.90;99.90;;;;;;5069065;28;20048;-80
2022/11/10 00:58:11;;;;;;;6.82;1.80;;;8.90;99.90;;;;;;5069373;28;20041;-80
2022/11/10 01:00:37;;;;;;;6.03;1.95;;;8.90;99.90;;;;;;5098776;28;20040;-80
2022/11/10 01:03:04;;;;;;;5.20;1.65;;;9.00;99.90;;;;;;5085748;28;20044;-80
2022/11/10 01:05:35;;;;;;;12.25;2.17;;;8.90;99.90;;;;;;5085554;28;20516;-80
2022/11/10 01:08:02;;;;;;;6.05;2.03;;;8.90;99.90;;;;;;5118403;28;20443;-80
2022/11/10 01:10:29;;;;;;;10.20;1.80;;;8.90;99.90;;;;;;5068780;28;20041;-81
2022/11/10 01:12:55;;;;;;;11.10;2.03;;;8.90;99.90;;;;;;5068815;28;20037;-80
2022/11/10 01:15:22;;;;;;;6.10;2.05;;;8.90;99.90;;;;;;5068995;28;20037;-80
2022/11/10 01:17:49;;;;;;;9.07;2.80;;;9.00;99.90;;;;;;5069036;28;20445;-80
2022/11/10 01:20:16;;;;;;;11.10;2.20;;;9.00;99.90;;;;;;5086061;28;20093;-80
2022/11/10 01:22:43;;;;;;;7.10;1.80;;;9.00;99.90;;;;;;5068949;28;20135;-80
2022/11/10 01:25:10;;;;;;;10.43;2.05;;;9.00;99.90;;;;;;5102738;28;20047;-80
2022/11/10 01:27:37;;;;;;;10.32;2.33;;;8.90;99.90;;;;;;5068350;28;20068;-80
2022/11/10 01:30:05;;;;;;;7.15;2.17;;;8.90;99.90;;;;;;5102351;28;20049;-80
2022/11/10 01:32:31;;;;;;;7.43;1.88;;;8.90;99.90;;;;;;5085189;28;20451;-80
2022/11/10 01:34:58;;;;;;;10.75;2.40;;;8.90;99.90;;;;;;5085611;28;20036;-80
2022/11/10 01:37:24;;;;;;;8.00;1.92;;;8.90;99.90;;;;;;5068956;28;20049;-80
2022/11/10 01:39:51;;;;;;;9.50;2.17;;;8.90;99.90;;;;;;5085025;28;20045;-80
2022/11/10 01:42:26;;;;;;;6.88;2.10;;;8.80;99.90;;;;;;5101994;28;20091;-80
2022/11/10 01:45:21;;;;;;;9.50;2.05;;;8.80;99.90;;;;;;5068614;28;20485;-80
2022/11/10 01:47:50;;;;;;;19.48;2.78;;;8.80;99.90;;;;;;5101824;28;20916;-80
2022/11/10 01:50:19;;;;;;;7.30;2.25;;;8.80;99.90;;;;;;5119189;28;20490;-80
2022/11/10 01:52:49;;;;;;;12.95;2.25;;;8.80;99.90;;;;;;5085170;28;20037;-80
2022/11/10 01:55:16;;;;;;;9.60;2.50;;;8.80;99.90;;;;;;5102047;28;20033;-80
2022/11/10 01:57:44;;;;;;;11.65;2.65;;;9.00;99.90;;;;;;5085224;28;20509;-80
2022/11/10 02:00:10;;;;;;;10.73;2.22;;;8.80;99.90;;;;;;5098899;28;20071;-80
2022/11/10 02:02:43;;;;;;;10.38;2.55;;;8.80;99.90;;;;;;5056885;28;20509;-80
2022/11/10 02:05:09;;;;;;;11.50;2.97;;;8.80;99.90;;;;;;5048805;28;20476;-80
2022/11/10 02:07:37;;;;;;;10.13;2.95;;;8.90;99.90;;;;;;5032219;28;20157;-80
2022/11/10 02:10:12;;;;;;;11.27;3.05;;;8.80;99.90;;;;;;5048866;28;20450;-80
2022/11/10 02:12:39;;;;;;;9.77;2.93;;;8.80;99.90;;;;;;5083014;28;20080;-80
2022/11/10 02:15:09;;;;;;;5.10;2.40;;;8.80;99.90;;;;;;5082532;28;20303;-80
2022/11/10 02:17:36;;;;;;;10.38;2.75;;;8.80;99.90;;;;;;5084851;28;20128;-80
2022/11/10 02:20:10;;;;;;;7.55;2.67;;;8.80;99.90;;;;;;5038477;28;20133;-80
2022/11/10 02:22:36;;;;;;;10.38;3.33;;;8.80;99.90;;;;;;5071985;28;20406;-80
2022/11/10 02:25:04;;;;;;;9.10;2.90;;;8.80;99.90;;;;;;5055741;28;20037;-80
2022/11/10 02:27:31;;;;;;;9.57;2.90;;;8.80;99.90;;;;;;5055751;28;20102;-80
2022/11/10 02:29:58;;;;;;;11.52;2.75;;;8.80;99.90;;;;;;5055453;28;20045;-80
2022/11/10 02:32:25;;;;;;;9.65;2.80;;;8.80;99.90;;;;;;5072617;28;20048;-81
2022/11/10 02:34:51;;;;;;;7.70;2.60;;;8.80;99.90;;;;;;5055209;28;20040;-80
2022/11/10 02:37:18;;;;;;;10.05;2.88;;;8.80;99.90;;;;;;5071949;28;20051;-80
2022/11/10 02:39:45;;;;;;;10.43;2.92;;;8.80;99.90;;;;;;5071862;28;20830;-80
2022/11/10 02:42:11;;;;;;;4.72;2.47;;;8.70;99.90;;;;;;5055671;28;20052;-81
2022/11/10 02:44:39;;;;;;;7.18;2.40;;;8.70;99.90;;;;;;5054929;28;20041;-81
2022/11/10 02:47:06;;;;;;;8.93;2.55;;;8.80;99.90;;;;;;5055074;28;20517;-80
2022/11/10 02:49:33;;;;;;;11.60;2.95;;;8.80;99.90;;;;;;5104846;28;20127;-80
2022/11/10 02:52:00;;;;;;;8.77;2.67;;;8.80;99.90;;;;;;5087986;28;20124;-80
2022/11/10 02:54:26;;;;;;;9.40;3.08;;;8.70;99.90;;;;;;5088205;28;20048;-80
2022/11/10 02:56:53;;;;;;;12.23;3.50;;;8.70;99.90;;;;;;5070920;28;20386;-80
2022/11/10 02:59:20;;;;;;;12.13;2.67;;;8.70;99.90;;;;;;5038964;28;20451;-80
2022/11/10 03:01:46;;;;;;;8.57;2.95;;;8.70;99.90;;;;;;5054774;28;20041;-80
2022/11/10 03:04:13;;;;;;;10.70;2.55;;;8.70;99.90;;;;;;5038613;28;20044;-80
2022/11/10 03:06:40;;;;;;;8.30;2.80;;;8.70;99.90;;;;;;5054314;28;20131;-80
2022/11/10 03:09:06;;;;;;;12.73;3.25;;;8.70;99.90;;;;;;5087934;28;20033;-80
2022/11/10 03:11:33;;;;;;;6.38;2.60;;;8.70;99.90;;;;;;5088000;28;20075;-80
2022/11/10 03:14:00;;;;;;;6.97;2.97;;;8.60;99.90;;;;;;5071147;28;20492;-80
2022/11/10 03:16:26;;;;;;;10.45;2.90;;;8.70;99.90;;;;;;5087985;28;20132;-80
2022/11/10 03:18:53;;;;;;;8.13;2.72;;;8.90;99.90;;;;;;5104041;28;20045;-80
2022/11/10 03:21:20;;;;;;;5.68;2.17;;;8.70;99.90;;;;;;5071168;28;20044;-80
2022/11/10 03:23:47;;;;;;;6.85;2.45;;;8.70;99.90;;;;;;5087361;28;20124;-81
2022/11/10 03:26:13;;;;;;;14.00;2.78;;;8.60;99.90;;;;;;5083312;28;20121;-81
2022/11/10 03:28:40;;;;;;;11.80;2.53;;;8.70;99.90;;;;;;5067507;28;20127;-80
2022/11/10 03:31:07;;;;;;;12.32;2.47;;;8.60;99.90;;;;;;5066337;28;20052;-80
2022/11/10 03:33:34;;;;;;;9.85;2.90;;;8.70;99.90;;;;;;5084006;28;20045;-80
2022/11/10 03:36:01;;;;;;;12.73;2.60;;;8.70;99.90;;;;;;5083858;28;20043;-80
2022/11/10 03:38:27;;;;;;;10.45;2.60;;;8.60;99.90;;;;;;5086724;28;20783;-80
2022/11/10 03:40:54;;;;;;;6.97;2.15;;;8.70;99.90;;;;;;5070277;28;20127;-80
2022/11/10 03:43:21;;;;;;;11.35;2.67;;;8.70;99.90;;;;;;5087012;28;20037;-80
2022/11/10 03:45:47;;;;;;;9.43;3.03;;;8.70;99.90;;;;;;5103503;28;20073;-81
2022/11/10 03:48:14;;;;;;;10.40;2.78;;;8.60;99.90;;;;;;5103511;28;20041;-80
2022/11/10 03:50:41;;;;;;;12.20;3.08;;;8.60;99.90;;;;;;5070402;28;20508;-80
2022/11/10 03:53:07;;;;;;;10.48;2.85;;;8.60;99.90;;;;;;5103485;28;20561;-80
2022/11/10 03:55:34;;;;;;;10.93;2.80;;;8.60;99.90;;;;;;5087268;28;20036;-80
2022/11/10 03:58:04;;;;;;;8.95;3.13;;;8.60;99.90;;;;;;5053667;28;20048;-80
2022/11/10 04:00:31;;;;;;;9.95;2.83;;;9.00;99.90;;;;;;5040601;28;20508;-80
2022/11/10 04:02:57;;;;;;;12.57;2.90;;;8.60;99.90;;;;;;5066828;28;20085;-81
2022/11/10 04:11:02;;;;;;;9.32;2.95;;;8.60;99.90;;;;;;5086376;28;20736;-80
2022/11/10 04:16:14;;;;;;;12.27;2.60;;;8.50;99.90;;;;;;5106038;28;20040;-80
2022/11/10 04:18:41;;;;;;;11.68;3.22;;;8.50;99.90;;;;;;5084654;28;20033;-80
2022/11/10 04:21:07;;;;;;;17.75;3.42;;;8.50;99.90;;;;;;5053290;28;20055;-81
2022/11/10 04:23:35;;;;;;;9.15;2.78;;;8.50;99.90;;;;;;5086922;28;20128;-80
2022/11/10 04:28:53;;;;;;;8.05;2.90;;;8.60;99.90;;;;;;5085987;28;20075;-80
2022/11/10 04:31:21;;;;;;;11.93;3.13;;;8.50;99.90;;;;;;5069757;28;20473;-80
2022/11/10 04:33:48;;;;;;;8.05;2.97;;;8.50;99.90;;;;;;5069657;28;20464;-80
2022/11/10 04:36:21;;;;;;;11.60;3.38;;;8.50;99.90;;;;;;5069667;28;20032;-80
2022/11/10 04:38:48;;;;;;;12.13;3.05;;;8.60;99.90;;;;;;5069295;28;20476;-81
2022/11/10 04:41:16;;;;;;;11.32;3.33;;;8.50;99.90;;;;;;5102303;28;20044;-80
2022/11/10 04:43:43;;;;;;;10.57;3.47;;;8.50;99.90;;;;;;5085977;28;20075;-80
2022/11/10 04:46:37;;;;;;;12.88;3.35;;;8.50;99.90;;;;;;5069181;28;20045;-81
2022/11/10 04:49:05;;;;;;;8.48;3.03;;;8.50;99.90;;;;;;5066616;28;20136;-81
2022/11/10 04:51:36;;;;;;;9.88;3.25;;;8.50;99.90;;;;;;5069421;28;20124;-80
2022/11/10 04:54:04;;;;;;;14.68;3.40;;;8.60;99.90;;;;;;5069618;28;20127;-81
2022/11/10 04:56:31;;;;;;;10.00;2.97;;;8.50;99.90;;;;;;5102702;28;20702;-81
2022/11/10 04:58:57;;;;;;;9.85;3.50;;;8.60;99.90;;;;;;5086020;28;20132;-81
2022/11/10 05:01:26;;;;;;;14.30;3.38;;;8.60;99.90;;;;;;5069755;28;20076;-81
2022/11/10 05:03:53;;;;;;;12.85;4.13;;;8.60;99.90;;;;;;5102592;28;20119;-81
2022/11/10 05:06:21;;;;;;;14.68;3.65;;;8.60;99.90;;;;;;5085833;28;20738;-81
2022/11/10 05:08:48;;;;;;;15.07;4.00;;;8.70;99.90;;;;;;5085930;28;20033;-81
2022/11/10 05:11:16;;;;;;;9.88;3.33;;;8.90;99.90;;;;;;5069237;28;20037;-81
2022/11/10 05:13:44;;;;;;;12.30;4.18;;;8.70;99.90;;;;;;5086035;28;20073;-81
2022/11/10 05:16:11;;;;;;;14.55;3.85;;;8.70;99.90;;;;;;5068732;28;20577;-81
2022/11/10 05:18:38;;;;;;;16.40;4.32;;;8.80;99.90;;;;;;5102247;28;20083;-81
2022/11/10 05:21:05;;;;;;;9.88;3.88;;;8.80;99.90;;;;;;5084863;28;20425;-81
2022/11/10 05:23:37;;;;;;;13.07;4.10;;;8.80;99.90;;;;;;5069107;28;20052;-81
2022/11/10 05:26:15;;;;;;;8.57;3.65;;;8.80;99.90;;;;;;5068835;28;20504;-81
2022/11/10 05:28:44;;;;;;;14.00;3.85;;;8.80;99.90;;;;;;5068850;28;20497;-81
2022/11/10 05:31:12;;;;;;;12.60;4.07;;;8.90;99.90;;;;;;5085412;28;20044;-81
2022/11/10 05:33:39;;;;;;;16.90;4.45;;;8.90;99.90;;;;;;5118943;28;20425;-81
2022/11/10 05:36:06;;;;;;;16.60;5.55;;;8.90;99.90;;;;;;5068837;28;20485;-81
2022/11/10 05:38:33;;;;;;;13.90;4.38;;;8.90;99.90;;;;;;5085139;28;20041;-81
2022/11/10 05:41:00;;;;;;;17.75;4.32;;;8.90;99.90;;;;;;5085323;28;20444;-81
2022/11/10 05:43:27;;;;;;;11.55;3.72;;;8.90;99.90;;;;;;5085432;28;20045;-81
2022/11/10 05:45:53;;;;;;;10.25;3.90;;;9.00;99.90;;;;;;5068818;28;20475;-81
2022/11/10 05:48:20;;;;;;;17.65;4.60;;;9.00;99.90;;;;;;5085214;28;20080;-81
2022/11/10 05:50:47;;;;;;;14.18;4.10;;;9.00;99.90;;;;;;5068714;28;20033;-81
2022/11/10 05:53:13;;;;;;;15.98;4.50;;;9.00;99.90;;;;;;5085246;28;20535;-81
2022/11/10 05:55:40;;;;;;;14.20;4.50;;;9.00;99.90;;;;;;5105858;28;20045;-81
2022/11/10 05:58:07;;;;;;;13.57;4.63;;;9.00;99.90;;;;;;5122673;28;20090;-81
2022/11/10 06:00:34;;;;;;;11.77;4.50;;;9.00;99.90;;;;;;5123051;28;20409;-81
2022/11/10 06:03:05;;;;;;;14.30;5.22;;;9.00;99.90;;;;;;5088961;28;20037;-81
2022/11/10 06:05:34;;;;;;;16.05;4.45;;;9.00;99.90;;;;;;5072642;28;20037;-81
2022/11/10 06:08:03;;;;;;;10.90;3.75;;;9.00;99.90;;;;;;5072280;28;20163;-81
2022/11/10 06:10:30;;;;;;;17.50;4.65;;;9.00;99.90;;;;;;5072461;28;20037;-81
2022/11/10 06:12:57;;;;;;;20.73;4.38;;;9.00;99.90;;;;;;5105658;28;20037;-81
2022/11/10 06:15:24;;;;;;;12.45;4.80;;;9.00;99.90;;;;;;5089185;28;20114;-81
2022/11/10 06:17:52;;;;;;;11.57;4.40;;;9.00;99.90;;;;;;5088779;28;20041;-81
2022/11/10 06:20:19;;;;;;;11.82;4.57;;;9.00;99.90;;;;;;5072187;28;20059;-81
2022/11/10 06:23:03;;;;;;;11.18;4.10;;;9.00;99.90;;;;;;5089058;28;20034;-81
2022/11/10 06:25:33;;;;;;;8.45;4.03;;;9.00;99.90;;;;;;5105276;28;20045;-81
2022/11/10 06:28:00;;;;;;;12.68;3.83;;;9.00;99.90;;;;;;5071588;28;20049;-81
2022/11/10 06:30:28;;;;;;;10.57;4.20;;;9.00;99.90;;;;;;5088603;28;20048;-81
2022/11/10 06:32:55;;;;;;;16.60;5.03;;;9.00;99.90;;;;;;5088026;28;20094;-80
2022/11/10 06:35:23;;;;;;;14.20;4.43;;;9.80;99.90;;;;;;5087730;28;20443;-81
2022/11/10 06:38:09;;;;;;;18.45;4.63;;;9.00;99.90;;;;;;5071791;28;20048;-80
2022/11/10 06:40:36;;;;;;;16.00;4.40;;;9.00;99.90;;;;;;5072168;28;20053;-81
2022/11/10 06:43:03;;;;;;;13.13;4.32;;;9.00;99.90;;;;;;5088567;28;20059;-80
2022/11/10 06:45:29;;;;;;;12.65;4.05;;;9.00;99.90;;;;;;5089758;28;20052;-80
2022/11/10 06:48:06;;;;;;;17.40;5.03;;;8.90;99.90;;;;;;5038934;28;20041;-81
2022/11/10 06:50:33;;;;;;;12.30;4.22;;;8.90;99.90;;;;;;5088094;28;20037;-80
2022/11/10 06:53:00;;;;;;;15.55;4.53;;;8.90;99.90;;;;;;5119649;28;20489;-80
2022/11/10 06:55:28;;;;;;;15.00;4.97;;;9.00;99.90;;;;;;5067254;28;20056;-81
2022/11/10 06:57:55;;;;;;;13.45;3.97;;;9.00;99.90;;;;;;5087110;28;20044;-80
2022/11/10 07:00:22;;;;;;;13.10;4.60;;;9.00;99.90;;;;;;5091592;28;20106;-80
2022/11/10 07:03:07;;;;;;;15.95;4.57;;;9.00;99.90;;;;;;5087287;28;20044;-81
2022/11/10 07:05:35;;;;;;;18.00;5.05;;;9.10;99.90;;;;;;5089854;28;20036;-80
2022/11/10 07:08:12;;;;;;;15.52;3.90;;;9.10;99.90;;;;;;5078593;28;20061;-80
2022/11/10 07:10:39;;;;;;;15.35;4.55;;;9.10;99.90;;;;;;5071025;28;20041;-81
2022/11/10 07:13:05;;;;;;;18.73;4.25;;;9.10;99.90;;;;;;5039951;28;21510;-80
2022/11/10 07:15:33;;;;;;;18.13;4.97;;;9.20;99.90;;;;;;5078532;28;20044;-80
2022/11/10 07:18:01;;;;;;;18.95;4.47;;;9.20;99.90;;;;;;5076560;28;20037;-80
2022/11/10 07:20:30;;;;;;;17.38;4.32;;;9.20;99.90;;;;;;5073343;28;20068;-80
2022/11/10 07:23:02;;;;;;;18.83;4.43;;;9.30;99.90;;;;;;5063413;28;20036;-80
2022/11/10 07:25:31;;;;;;;10.18;3.90;;;9.30;99.90;;;;;;5070357;28;20052;-80
2022/11/10 07:27:59;;;;;;;14.40;4.10;;;9.40;99.90;;;;;;5062463;28;20071;-80
2022/11/10 07:30:27;;;;;;;16.73;4.55;;;9.30;99.90;;;;;;5091529;28;20042;-80
2022/11/10 07:33:14;;;;;;;10.95;4.80;;;9.40;99.90;;;;;;5085069;28;20501;-81
2022/11/10 07:35:41;;;;;;;15.50;4.40;;;9.30;99.90;;;;;;5069982;28;20489;-81
2022/11/10 07:38:10;;;;;;;12.38;4.55;;;9.40;99.90;;;;;;5070151;28;20075;-81
2022/11/10 07:40:38;;;;;;;17.75;4.70;;;9.40;99.90;;;;;;5100311;28;20033;-80
2022/11/10 07:43:05;;;;;;;16.05;4.60;;;9.50;99.90;;;;;;5095077;28;20041;-80
2022/11/10 07:45:32;;;;;;;17.48;4.03;;;9.50;99.90;;;;;;5052594;28;20191;-81
2022/11/10 07:48:00;;;;;;;20.65;4.93;;;9.50;99.90;;;;;;5097074;28;20417;-81
2022/11/10 07:50:27;;;;;;;17.63;5.63;;;9.60;99.90;;;;;;5110338;28;20111;-80
2022/11/10 07:53:04;;;;;;;19.80;5.20;;;9.20;99.90;;;;;;5065282;28;20051;-81
2022/11/10 07:55:31;;;;;;;13.15;4.55;;;9.60;99.90;;;;;;5056687;28;20125;-81
2022/11/10 07:57:58;;;;;;;17.95;5.30;;;9.60;99.90;;;;;;5037693;28;20521;-81
2022/11/10 08:00:28;;;;;;;17.58;4.70;;;9.60;99.90;;;;;;5070636;28;20040;-80
2022/11/10 08:03:01;;;;;;;17.38;4.95;;;9.60;99.90;;;;;;5070739;28;20124;-81
2022/11/10 08:05:28;;;;;;;15.82;5.25;;;9.60;99.90;;;;;;5070818;28;20417;-81
2022/11/10 08:07:55;;;;;;;21.35;5.75;;;9.80;99.90;;;;;;5087188;28;20041;-80
2022/11/10 08:10:22;;;;;;;14.20;4.88;;;9.60;99.90;;;;;;5086879;28;20477;-81
2022/11/10 08:12:56;;;;;;;13.23;5.18;;;9.60;99.90;;;;;;5086922;28;20167;-80
2022/11/10 08:15:25;;;;;;;18.25;5.22;;;9.60;99.90;;;;;;5120654;28;20055;-80
2022/11/10 08:17:58;;;;;;;16.30;5.22;;;9.50;99.90;;;;;;5069902;28;20045;-80
2022/11/10 08:20:24;;;;;;;18.27;5.55;;;9.60;99.90;;;;;;5120382;28;20456;-80
2022/11/10 08:23:00;;;;;;;24.63;5.80;;;9.60;99.90;;;;;;5070303;28;20041;-80
2022/11/10 08:25:28;;;;;;;11.73;4.72;;;9.60;99.90;;;;;;5070245;28;20072;-81
2022/11/10 08:28:00;;;;;;;17.77;5.10;;;9.60;99.90;;;;;;5086501;28;20088;-80
2022/11/10 08:30:28;;;;;;;13.10;4.78;;;9.60;99.90;;;;;;5103443;28;20409;-81
2022/11/10 08:32:57;;;;;;;14.77;4.25;;;9.60;99.90;;;;;;5087068;28;20106;-80
2022/11/10 08:35:29;;;;;;;13.32;5.53;;;9.60;99.90;;;;;;5069803;28;20041;-81
2022/11/10 08:37:56;;;;;;;18.60;4.75;;;9.70;99.90;;;;;;5070243;28;20044;-81
2022/11/10 08:40:26;;;;;;;21.45;4.88;;;9.70;99.90;;;;;;5086475;28;20045;-81
2022/11/10 08:42:58;;;;;;;13.50;4.22;;;9.60;99.90;;;;;;5086368;28;20106;-80
2022/11/10 08:45:25;;;;;;;14.70;4.35;;;9.70;99.90;;;;;;5069967;28;20472;-80
2022/11/10 08:47:57;;;;;;;20.50;4.90;;;9.70;99.90;;;;;;5103222;28;20378;-80
2022/11/10 08:50:25;;;;;;;16.00;4.68;;;9.80;99.90;;;;;;5086013;28;20405;-80
2022/11/10 08:52:52;;;;;;;17.95;5.22;;;9.80;99.90;;;;;;5070186;28;20152;-81
2022/11/10 08:55:21;;;;;;;18.25;5.35;;;9.90;99.90;;;;;;5069781;28;20135;-80
2022/11/10 08:57:48;;;;;;;14.02;4.85;;;10.00;99.90;;;;;;5102434;28;20037;-80
2022/11/10 09:00:16;;;;;;;19.85;5.45;;;10.10;99.90;;;;;;5086657;28;20524;-80
2022/11/10 09:02:43;;;;;;;15.68;5.72;;;10.20;99.90;;;;;;5069619;28;20512;-80
2022/11/10 09:05:09;;;;;;;17.08;5.07;;;10.20;99.90;;;;;;5086088;28;20083;-80
2022/11/10 09:07:47;;;;;;;21.02;5.55;;;10.30;99.90;;;;;;5069684;28;20040;-81
2022/11/10 09:10:15;;;;;;;16.50;5.30;;;10.30;99.90;;;;;;5086141;28;20037;-81
2022/11/10 09:12:41;;;;;;;18.95;5.47;;;10.40;99.90;;;;;;5085982;28;20072;-80
2022/11/10 09:15:10;;;;;;;17.60;4.97;;;10.50;99.90;;;;;;5086356;28;20830;-80
2022/11/10 09:17:38;;;;;;;21.88;5.10;;;10.50;99.90;;;;;;5085681;28;20056;-80
2022/11/10 09:20:06;;;;;;;22.17;5.47;;;10.50;99.90;;;;;;5069505;28;20061;-80
2022/11/10 09:22:36;;;;;;;14.05;5.63;;;10.60;99.90;;;;;;5085992;28;20033;-80
2022/11/10 09:25:04;;;;;;;15.70;5.05;;;10.70;99.90;;;;;;5069391;28;20128;-80
2022/11/10 09:27:35;;;;;;;20.98;5.20;;;10.70;99.90;;;;;;5085375;28;20049;-81
2022/11/10 09:30:04;;;;;;;21.25;5.57;;;10.80;99.90;;;;;;5088835;28;20037;-80
2022/11/10 09:32:31;;;;;;;14.65;4.93;;;10.80;99.90;;;;;;5090035;28;20051;-80
2022/11/10 09:34:58;;;;;;;13.45;4.80;;;10.80;99.90;;;;;;5073332;28;20037;-80
2022/11/10 09:37:25;;;;;;;18.42;5.13;;;10.90;99.90;;;;;;5089811;28;20041;-80
2022/11/10 09:39:52;;;;;;;11.73;4.97;;;11.00;99.90;;;;;;5073173;28;20087;-80
2022/11/10 09:42:27;;;;;;;21.40;5.25;;;11.10;99.90;;;;;;5090117;28;20044;-80
2022/11/10 09:45:26;;;;;;;18.35;5.43;;;11.20;99.90;;;;;;5073394;28;20064;-80
2022/11/10 09:48:10;;;;;;;12.88;4.50;;;11.30;99.90;;;;;;5085292;28;20049;-80
2022/11/10 09:50:58;;;;;;;15.02;5.50;;;11.40;99.90;;;;;;5072965;28;20801;-81
2022/11/10 09:53:48;;;;;;;23.98;8.75;;;11.50;99.90;;;;;;5073367;28;20035;-80
2022/11/10 09:56:30;;;;;;;12.35;4.50;;;11.50;99.90;;;;;;5073054;28;20080;-80
2022/11/10 09:58:57;;;;;;;17.85;5.18;;;11.50;99.90;;;;;;5073282;28;20124;-81
2022/11/10 10:01:30;;;;;;;16.15;4.25;;;11.50;99.90;;;;;;5073054;28;20541;-80
2022/11/10 10:04:34;;;;;;;19.92;5.13;;;11.60;99.90;;;;;;5106119;28;20045;-81
2022/11/10 10:07:34;;;;;;;21.50;4.55;;;12.50;99.90;;;;;;5106551;28;20440;-81
2022/11/10 10:10:12;;;;;;;20.38;4.25;;;11.60;99.90;;;;;;5071412;28;20452;-81
2022/11/10 10:13:03;;;;;;;23.73;5.65;;;11.70;99.90;;;;;;5072436;28;20480;-81
2022/11/10 10:16:14;;;;;;;16.02;3.67;;;11.70;99.90;;;;;;5105842;28;20036;-81
2022/11/10 10:19:14;;;;;;;18.52;4.93;;;11.80;99.90;;;;;;5055159;28;20115;-81
2022/11/10 10:21:49;;;;;;;12.80;3.67;;;11.90;99.90;;;;;;5054811;28;20541;-81
2022/11/10 10:24:18;;;;;;;15.73;4.30;;;11.90;99.90;;;;;;5067780;28;20454;-81
2022/11/10 10:26:56;;;;;;;13.38;4.00;;;12.00;99.90;;;;;;5072005;28;20032;-81
2022/11/10 10:29:36;;;;;;;15.48;4.20;;;12.10;99.90;;;;;;5072285;28;20054;-81
2022/11/10 10:32:03;;;;;;;26.00;5.85;;;12.10;99.90;;;;;;5122456;28;20045;-81
2022/11/10 10:34:33;;;;;;;21.25;4.38;;;12.20;99.90;;;;;;5088771;28;20041;-81
2022/11/10 10:37:00;;;;;;;16.90;4.20;;;12.30;99.90;;;;;;5105414;28;20585;-81
2022/11/10 10:39:42;;;;;;;20.33;5.38;;;12.30;99.90;;;;;;5105497;28;20045;-81
2022/11/10 10:42:32;;;;;;;21.52;5.07;;;12.30;99.90;;;;;;5072234;28;20501;-80
2022/11/10 10:45:11;;;;;;;16.50;4.32;;;12.30;99.90;;;;;;5071993;28;20059;-81
2022/11/10 10:47:38;;;;;;;33.00;6.15;;;12.40;99.90;;;;;;5105338;28;20075;-80
2022/11/10 10:50:20;;;;;;;13.13;3.70;;;12.40;99.90;;;;;;5121856;28;20574;-80
2022/11/10 10:53:16;;;;;;;22.02;5.43;;;12.40;99.90;;;;;;5105189;28;20041;-81
2022/11/10 10:55:58;;;;;;;15.13;4.50;;;12.40;99.90;;;;;;5105174;28;20045;-81
2022/11/10 10:58:32;;;;;;;18.50;3.92;;;12.40;99.90;;;;;;5071957;28;20147;-80
2022/11/10 11:01:19;;;;;;;14.10;3.90;;;12.40;99.90;;;;;;5071413;28;20400;-80
2022/11/10 11:03:48;;;;;;;16.10;3.40;;;12.40;99.90;;;;;;5071305;28;20044;-81
2022/11/10 11:06:18;;;;;;;16.60;4.05;;;12.40;99.90;;;;;;5071715;28;20041;-81
2022/11/10 11:09:18;;;;;;;21.30;5.15;;;12.40;99.90;;;;;;5104556;28;20406;-80
2022/11/10 11:11:59;;;;;;;25.88;4.82;;;12.40;99.90;;;;;;5105099;28;20077;-80
2022/11/10 11:14:28;;;;;;;20.40;4.47;;;12.40;99.90;;;;;;5071493;28;20041;-80
2022/11/10 11:17:01;;;;;;;17.75;4.40;;;12.40;99.90;;;;;;5071568;28;20062;-80
2022/11/10 11:19:36;;;;;;;7.88;3.08;;;12.40;99.90;;;;;;5071318;28;20474;-80
2022/11/10 11:22:21;;;;;;;15.73;3.33;;;12.50;99.90;;;;;;5104718;28;20083;-81
2022/11/10 11:25:04;;;;;;;16.92;4.07;;;12.60;99.90;;;;;;5104619;28;20543;-80
2022/11/10 11:27:47;;;;;;;16.52;3.30;;;12.60;99.90;;;;;;5104541;28;20469;-80
2022/11/10 11:30:20;;;;;;;1000.15;86.15;;;12.70;99.90;;;;;;5121632;28;20041;-80
2022/11/10 11:33:08;;;;;;;20.88;5.97;;;12.80;99.90;;;;;;5087782;28;20044;-81
2022/11/10 11:35:44;;;;;;;16.70;3.42;;;12.80;99.90;;;;;;5104635;28;20041;-80
2022/11/10 11:38:28;;;;;;;19.02;3.45;;;12.90;99.90;;;;;;5071068;28;20041;-80
2022/11/10 11:41:25;;;;;;;16.80;3.88;;;13.00;99.90;;;;;;5104589;28;20044;-81
2022/11/10 11:44:09;;;;;;;15.30;3.40;;;13.10;99.90;;;;;;5071171;28;20123;-80
2022/11/10 11:46:59;;;;;;;15.95;3.17;;;13.10;99.90;;;;;;5071022;28;20178;-81
2022/11/10 11:50:03;;;;;;;14.80;3.45;;;13.20;99.90;;;;;;5104502;28;20071;-81
2022/11/10 11:52:37;;;;;;;13.35;2.67;;;13.30;99.90;;;;;;5103279;28;20079;-80
2022/11/10 11:55:13;;;;;;;13.05;2.33;;;13.30;99.90;;;;;;5070667;28;20505;-80
2022/11/10 11:58:04;;;;;;;13.15;2.30;;;13.40;99.90;;;;;;5104424;28;20043;-80
2022/11/10 12:00:58;;;;;;;9.20;2.28;;;13.40;99.90;;;;;;5120873;28;20109;-80
2022/11/10 12:03:54;;;;;;;16.27;2.63;;;13.40;99.90;;;;;;5087534;28;20045;-80
2022/11/10 12:06:39;;;;;;;;;;;13.40;99.90;;;;;;5104551;28;20405;-80
2022/11/10 12:09:36;;;;;;;16.63;4.25;;;13.40;99.90;;;;;;5070294;28;19928;-81
2022/11/10 12:12:11;;;;;;;24.95;5.55;;;13.40;99.90;;;;;;5103700;28;20029;-81
2022/11/10 12:15:20;;;;;;;15.18;3.95;;;13.40;99.90;;;;;;5070859;28;20154;-80
2022/11/10 12:17:58;;;;;;;60.63;17.88;;;13.40;99.90;;;;;;5070511;28;20067;-80
2022/11/10 12:21:03;;;;;;;16.42;4.13;;;13.40;99.90;;;;;;5070650;28;20040;-80
2022/11/10 12:24:05;;;;;;;11.45;2.05;;;13.40;99.90;;;;;;5059967;28;20148;-80
2022/11/10 12:27:00;;;;;;;19.38;2.45;;;13.40;99.90;;;;;;5103677;28;20044;-80
2022/11/10 12:29:42;;;;;;;5.75;1.90;;;13.40;99.90;;;;;;5086453;28;20049;-80
2022/11/10 12:32:42;;;;;;;12.40;1.90;;;13.50;99.90;;;;;;5103069;28;20047;-80
2022/11/10 12:35:32;;;;;;;11.15;2.40;;;13.50;99.90;;;;;;5065587;28;20513;-80
2022/11/10 12:38:21;;;;;;;9.63;2.13;;;13.50;99.90;;;;;;5069392;28;20040;-81
2022/11/10 12:40:50;;;;;;;8.50;2.63;;;13.50;99.90;;;;;;5069730;28;20076;-80
2022/11/10 12:43:31;;;;;;;8.45;2.78;;;13.50;99.90;;;;;;5069742;28;20048;-80
2022/11/10 12:46:03;;;;;;;16.55;2.30;;;13.60;99.90;;;;;;5070029;28;20052;-80
2022/11/10 12:48:59;;;;;;;9.15;1.80;;;13.60;99.90;;;;;;5102624;28;20036;-80
2022/11/10 12:51:25;;;;;;;;;;;13.50;99.90;;;;;;5103379;28;20048;-81
2022/11/10 12:53:52;;;;;;;11.38;2.38;;;13.50;99.90;;;;;;5103022;28;19921;-81
2022/11/10 12:56:41;;;;;;;11.35;2.30;;;13.50;99.90;;;;;;5086158;28;20037;-81
2022/11/10 12:59:19;;;;;;;11.25;2.40;;;13.50;99.90;;;;;;5069607;28;20037;-81
2022/11/10 13:01:50;;;;;;;14.82;2.30;;;13.60;99.90;;;;;;5069735;28;20043;-81
2022/11/10 13:04:18;;;;;;;11.43;2.65;;;13.60;99.90;;;;;;5068991;28;20043;-81
2022/11/10 13:06:54;;;;;;;14.75;3.00;;;13.60;99.90;;;;;;5053097;28;20041;-81
2022/11/10 13:09:41;;;;;;;9.73;1.90;;;13.50;99.90;;;;;;5069083;28;20127;-81
2022/11/10 13:12:20;;;;;;;7.95;1.90;;;13.50;99.90;;;;;;5102648;28;20037;-81
2022/11/10 13:14:48;;;;;;;10.32;2.28;;;13.50;99.90;;;;;;5102684;28;20037;-80
2022/11/10 13:17:27;;;;;;;12.35;1.80;;;13.50;99.90;;;;;;5085257;28;20047;-81
2022/11/10 13:19:59;;;;;;;8.07;2.17;;;13.50;99.90;;;;;;5085791;28;20041;-81
2022/11/10 13:22:36;;;;;;;6.82;2.17;;;13.40;99.90;;;;;;5102541;28;20424;-80
2022/11/10 13:25:34;;;;;;;15.13;1.90;;;13.50;99.90;;;;;;5102627;28;20045;-81